McGuffey, Ohio
Current Conditions -  °F | °C
As of 12:53 PM on Saturday 25 Oct 2014 (Local Time) from KAOH Reporting Station
Clear Clear  
Wind Chill: 68°   Ceiling: Unl
Heat Index: 68°   Visibility: 10mi
Dew Point: 55°   Wind: 16mph
Humidity: 63%   Direction: 250°WSW
Pressure: 29.87"   Gusts: NA
Location:  40.69°N, 83.79°W
Report Text: KAOH 251653Z AUTO 25014KT 10SM CLR 20/13 A2987 RMK AO2 SLP114 T02000128
Loading
Personal Weather Stations






























Interactive Weather Map
Tropical Storm Tracking
New forecast layout! Learn more

10-Day Weather Forecast

Advertisements
Track Severe Weather on mobile